sensor_id;sensor_type;location;lat;lon;timestamp;temperature;humidity
9446;DHT22;4761;49.490;10.908;2023-09-07T00:01:06;23.60;59.20
9446;DHT22;4761;49.490;10.908;2023-09-07T00:03:32;23.60;59.10
9446;DHT22;4761;49.490;10.908;2023-09-07T00:05:57;23.60;59.20
9446;DHT22;4761;49.490;10.908;2023-09-07T00:08:23;23.60;59.10
9446;DHT22;4761;49.490;10.908;2023-09-07T00:10:50;23.60;59.10
9446;DHT22;4761;49.490;10.908;2023-09-07T00:13:16;23.60;59.10
9446;DHT22;4761;49.490;10.908;2023-09-07T00:15:42;23.60;59.10
9446;DHT22;4761;49.490;10.908;2023-09-07T00:18:08;23.60;59.20
9446;DHT22;4761;49.490;10.908;2023-09-07T00:20:34;23.60;59.20
9446;DHT22;4761;49.490;10.908;2023-09-07T00:23:00;23.60;59.20
9446;DHT22;4761;49.490;10.908;2023-09-07T00:25:26;23.60;59.20
9446;DHT22;4761;49.490;10.908;2023-09-07T00:27:51;23.60;59.20
9446;DHT22;4761;49.490;10.908;2023-09-07T00:30:17;23.60;59.10
9446;DHT22;4761;49.490;10.908;2023-09-07T00:32:42;23.60;59.20
9446;DHT22;4761;49.490;10.908;2023-09-07T00:35:08;23.60;59.20
9446;DHT22;4761;49.490;10.908;2023-09-07T00:37:34;23.60;59.30
9446;DHT22;4761;49.490;10.908;2023-09-07T00:39:59;23.60;59.20
9446;DHT22;4761;49.490;10.908;2023-09-07T00:42:25;23.60;59.20
9446;DHT22;4761;49.490;10.908;2023-09-07T00:44:50;23.60;59.30
9446;DHT22;4761;49.490;10.908;2023-09-07T00:47:16;23.60;59.30
9446;DHT22;4761;49.490;10.908;2023-09-07T00:49:42;23.60;59.20
9446;DHT22;4761;49.490;10.908;2023-09-07T00:52:08;23.60;59.30
9446;DHT22;4761;49.490;10.908;2023-09-07T00:54:37;23.50;59.20
9446;DHT22;4761;49.490;10.908;2023-09-07T00:57:06;23.50;59.20
9446;DHT22;4761;49.490;10.908;2023-09-07T00:59:32;23.50;59.20
9446;DHT22;4761;49.490;10.908;2023-09-07T01:01:58;23.50;59.20
9446;DHT22;4761;49.490;10.908;2023-09-07T01:04:23;23.50;59.20
9446;DHT22;4761;49.490;10.908;2023-09-07T01:07:13;23.50;59.20
9446;DHT22;4761;49.490;10.908;2023-09-07T01:09:40;23.50;59.20
9446;DHT22;4761;49.490;10.908;2023-09-07T01:12:07;23.50;59.20
9446;DHT22;4761;49.490;10.908;2023-09-07T01:14:36;23.50;59.20
9446;DHT22;4761;49.490;10.908;2023-09-07T01:17:03;23.50;59.20
9446;DHT22;4761;49.490;10.908;2023-09-07T01:19:29;23.50;59.10
9446;DHT22;4761;49.490;10.908;2023-09-07T01:21:54;23.50;59.10
9446;DHT22;4761;49.490;10.908;2023-09-07T01:24:20;23.50;59.10
9446;DHT22;4761;49.490;10.908;2023-09-07T01:26:47;23.50;59.10
9446;DHT22;4761;49.490;10.908;2023-09-07T01:29:15;23.50;59.10
9446;DHT22;4761;49.490;10.908;2023-09-07T01:31:42;23.50;59.10
9446;DHT22;4761;49.490;10.908;2023-09-07T01:34:07;23.50;59.10
9446;DHT22;4761;49.490;10.908;2023-09-07T01:36:34;23.40;59.00
9446;DHT22;4761;49.490;10.908;2023-09-07T01:39:00;23.50;59.10
9446;DHT22;4761;49.490;10.908;2023-09-07T01:41:25;23.40;59.00
9446;DHT22;4761;49.490;10.908;2023-09-07T01:43:51;23.40;59.00
9446;DHT22;4761;49.490;10.908;2023-09-07T01:46:16;23.40;59.00
9446;DHT22;4761;49.490;10.908;2023-09-07T01:48:42;23.40;59.00
9446;DHT22;4761;49.490;10.908;2023-09-07T01:51:08;23.40;59.00
9446;DHT22;4761;49.490;10.908;2023-09-07T01:53:33;23.40;59.00
9446;DHT22;4761;49.490;10.908;2023-09-07T01:55:59;23.40;59.00
9446;DHT22;4761;49.490;10.908;2023-09-07T01:58:25;23.40;59.00
9446;DHT22;4761;49.490;10.908;2023-09-07T02:00:52;23.40;59.00
9446;DHT22;4761;49.490;10.908;2023-09-07T02:03:17;23.40;59.00
9446;DHT22;4761;49.490;10.908;2023-09-07T02:05:45;23.40;58.90
9446;DHT22;4761;49.490;10.908;2023-09-07T02:08:10;23.40;59.00
9446;DHT22;4761;49.490;10.908;2023-09-07T02:10:37;23.40;58.90
9446;DHT22;4761;49.490;10.908;2023-09-07T02:13:02;23.40;58.90
9446;DHT22;4761;49.490;10.908;2023-09-07T02:15:29;23.40;58.90
9446;DHT22;4761;49.490;10.908;2023-09-07T02:17:54;23.40;58.80
9446;DHT22;4761;49.490;10.908;2023-09-07T02:20:20;23.40;58.80
9446;DHT22;4761;49.490;10.908;2023-09-07T02:22:45;23.40;58.80
9446;DHT22;4761;49.490;10.908;2023-09-07T02:25:11;23.40;58.80
9446;DHT22;4761;49.490;10.908;2023-09-07T02:27:37;23.40;58.80
9446;DHT22;4761;49.490;10.908;2023-09-07T02:30:04;23.40;58.80
9446;DHT22;4761;49.490;10.908;2023-09-07T02:32:31;23.40;58.70
9446;DHT22;4761;49.490;10.908;2023-09-07T02:34:56;23.40;58.70
9446;DHT22;4761;49.490;10.908;2023-09-07T02:37:22;23.40;58.70
9446;DHT22;4761;49.490;10.908;2023-09-07T02:39:47;23.40;58.70
9446;DHT22;4761;49.490;10.908;2023-09-07T02:42:13;23.40;58.70
9446;DHT22;4761;49.490;10.908;2023-09-07T02:44:38;23.40;58.70
9446;DHT22;4761;49.490;10.908;2023-09-07T02:47:04;23.40;58.70
9446;DHT22;4761;49.490;10.908;2023-09-07T02:49:30;23.30;58.60
9446;DHT22;4761;49.490;10.908;2023-09-07T02:51:55;23.40;58.70
9446;DHT22;4761;49.490;10.908;2023-09-07T02:54:22;23.30;58.60
9446;DHT22;4761;49.490;10.908;2023-09-07T02:56:48;23.40;58.70
9446;DHT22;4761;49.490;10.908;2023-09-07T02:59:14;23.30;58.60
9446;DHT22;4761;49.490;10.908;2023-09-07T03:01:39;23.30;58.60
9446;DHT22;4761;49.490;10.908;2023-09-07T03:04:05;23.30;58.50
9446;DHT22;4761;49.490;10.908;2023-09-07T03:06:31;23.30;58.60
9446;DHT22;4761;49.490;10.908;2023-09-07T03:08:57;23.30;58.60
9446;DHT22;4761;49.490;10.908;2023-09-07T03:11:22;23.30;58.60
9446;DHT22;4761;49.490;10.908;2023-09-07T03:13:48;23.30;58.50
9446;DHT22;4761;49.490;10.908;2023-09-07T03:16:14;23.30;58.50
9446;DHT22;4761;49.490;10.908;2023-09-07T03:18:39;23.30;58.50
9446;DHT22;4761;49.490;10.908;2023-09-07T03:21:06;23.30;58.50
9446;DHT22;4761;49.490;10.908;2023-09-07T03:23:32;23.30;58.50
9446;DHT22;4761;49.490;10.908;2023-09-07T03:25:59;23.30;58.50
9446;DHT22;4761;49.490;10.908;2023-09-07T03:28:25;23.30;58.40
9446;DHT22;4761;49.490;10.908;2023-09-07T03:30:51;23.20;58.40
9446;DHT22;4761;49.490;10.908;2023-09-07T03:33:17;23.30;58.40
9446;DHT22;4761;49.490;10.908;2023-09-07T03:35:43;23.20;58.30
9446;DHT22;4761;49.490;10.908;2023-09-07T03:38:08;23.30;58.40
9446;DHT22;4761;49.490;10.908;2023-09-07T03:40:34;23.20;58.30
9446;DHT22;4761;49.490;10.908;2023-09-07T03:42:59;23.20;58.90
9446;DHT22;4761;49.490;10.908;2023-09-07T03:45:25;23.20;58.30
9446;DHT22;4761;49.490;10.908;2023-09-07T03:47:50;23.20;58.30
9446;DHT22;4761;49.490;10.908;2023-09-07T03:50:16;23.20;58.30
9446;DHT22;4761;49.490;10.908;2023-09-07T03:52:42;23.20;58.30
9446;DHT22;4761;49.490;10.908;2023-09-07T03:55:07;23.20;58.30
9446;DHT22;4761;49.490;10.908;2023-09-07T03:57:33;23.20;58.30
9446;DHT22;4761;49.490;10.908;2023-09-07T03:59:59;23.20;58.30
9446;DHT22;4761;49.490;10.908;2023-09-07T04:02:25;23.20;58.30
9446;DHT22;4761;49.490;10.908;2023-09-07T04:04:52;23.20;58.30
9446;DHT22;4761;49.490;10.908;2023-09-07T04:07:17;23.20;58.30
9446;DHT22;4761;49.490;10.908;2023-09-07T04:09:44;23.20;58.30
9446;DHT22;4761;49.490;10.908;2023-09-07T04:12:10;23.20;58.30
9446;DHT22;4761;49.490;10.908;2023-09-07T04:14:36;23.20;58.30
9446;DHT22;4761;49.490;10.908;2023-09-07T04:17:02;23.20;58.30
9446;DHT22;4761;49.490;10.908;2023-09-07T04:19:28;23.20;58.30
9446;DHT22;4761;49.490;10.908;2023-09-07T04:21:53;23.20;58.20
9446;DHT22;4761;49.490;10.908;2023-09-07T04:24:19;23.20;58.30
9446;DHT22;4761;49.490;10.908;2023-09-07T04:26:44;23.20;58.30
9446;DHT22;4761;49.490;10.908;2023-09-07T04:29:10;23.20;58.30
9446;DHT22;4761;49.490;10.908;2023-09-07T04:31:38;23.20;58.30
9446;DHT22;4761;49.490;10.908;2023-09-07T04:34:03;23.20;58.20
9446;DHT22;4761;49.490;10.908;2023-09-07T04:36:29;23.20;58.30
9446;DHT22;4761;49.490;10.908;2023-09-07T04:38:54;23.20;58.20
9446;DHT22;4761;49.490;10.908;2023-09-07T04:41:20;23.20;58.20
9446;DHT22;4761;49.490;10.908;2023-09-07T04:43:45;23.20;58.30
9446;DHT22;4761;49.490;10.908;2023-09-07T04:46:12;23.20;58.30
9446;DHT22;4761;49.490;10.908;2023-09-07T04:48:38;23.10;58.20
9446;DHT22;4761;49.490;10.908;2023-09-07T04:51:06;23.10;58.20
9446;DHT22;4761;49.490;10.908;2023-09-07T04:53:34;23.10;58.20
9446;DHT22;4761;49.490;10.908;2023-09-07T04:56:01;23.10;58.20
9446;DHT22;4761;49.490;10.908;2023-09-07T04:58:27;23.10;58.20
9446;DHT22;4761;49.490;10.908;2023-09-07T05:00:52;23.10;58.20
9446;DHT22;4761;49.490;10.908;2023-09-07T05:03:18;23.20;58.20
9446;DHT22;4761;49.490;10.908;2023-09-07T05:05:44;23.10;58.10
9446;DHT22;4761;49.490;10.908;2023-09-07T05:08:10;23.10;58.10
9446;DHT22;4761;49.490;10.908;2023-09-07T05:10:36;23.10;58.10
9446;DHT22;4761;49.490;10.908;2023-09-07T05:13:02;23.10;58.10
9446;DHT22;4761;49.490;10.908;2023-09-07T05:15:28;23.10;58.10
9446;DHT22;4761;49.490;10.908;2023-09-07T05:17:54;23.10;58.10
9446;DHT22;4761;49.490;10.908;2023-09-07T05:20:20;23.10;58.10
9446;DHT22;4761;49.490;10.908;2023-09-07T05:22:45;23.10;58.10
9446;DHT22;4761;49.490;10.908;2023-09-07T05:25:11;23.10;58.10
9446;DHT22;4761;49.490;10.908;2023-09-07T05:27:37;23.10;58.10
9446;DHT22;4761;49.490;10.908;2023-09-07T05:30:03;23.10;58.00
9446;DHT22;4761;49.490;10.908;2023-09-07T05:32:29;23.10;58.00
9446;DHT22;4761;49.490;10.908;2023-09-07T05:34:54;23.10;58.10
9446;DHT22;4761;49.490;10.908;2023-09-07T05:37:20;23.10;58.10
9446;DHT22;4761;49.490;10.908;2023-09-07T05:39:46;23.10;58.10
9446;DHT22;4761;49.490;10.908;2023-09-07T05:42:11;23.10;58.10
9446;DHT22;4761;49.490;10.908;2023-09-07T05:44:37;23.10;58.10
9446;DHT22;4761;49.490;10.908;2023-09-07T05:47:03;23.10;58.10
9446;DHT22;4761;49.490;10.908;2023-09-07T05:49:29;23.10;58.10
9446;DHT22;4761;49.490;10.908;2023-09-07T05:51:55;23.20;58.20
9446;DHT22;4761;49.490;10.908;2023-09-07T05:54:21;23.10;58.10
9446;DHT22;4761;49.490;10.908;2023-09-07T05:56:46;23.10;58.20
9446;DHT22;4761;49.490;10.908;2023-09-07T05:59:11;23.20;58.20
9446;DHT22;4761;49.490;10.908;2023-09-07T06:01:38;23.20;58.30
9446;DHT22;4761;49.490;10.908;2023-09-07T06:04:04;23.20;58.30
9446;DHT22;4761;49.490;10.908;2023-09-07T06:06:30;23.20;58.30
9446;DHT22;4761;49.490;10.908;2023-09-07T06:08:56;23.20;58.30
9446;DHT22;4761;49.490;10.908;2023-09-07T06:11:21;23.20;58.30
9446;DHT22;4761;49.490;10.908;2023-09-07T06:13:47;23.20;58.30
9446;DHT22;4761;49.490;10.908;2023-09-07T06:16:12;23.20;58.30
9446;DHT22;4761;49.490;10.908;2023-09-07T06:18:38;23.20;58.30
9446;DHT22;4761;49.490;10.908;2023-09-07T06:21:04;23.20;58.30
9446;DHT22;4761;49.490;10.908;2023-09-07T06:23:31;23.20;58.30
9446;DHT22;4761;49.490;10.908;2023-09-07T06:25:56;23.20;58.00
9446;DHT22;4761;49.490;10.908;2023-09-07T06:28:22;23.20;57.40
9446;DHT22;4761;49.490;10.908;2023-09-07T06:30:48;23.10;57.40
9446;DHT22;4761;49.490;10.908;2023-09-07T06:33:13;23.20;57.40
9446;DHT22;4761;49.490;10.908;2023-09-07T06:35:39;23.20;57.30
9446;DHT22;4761;49.490;10.908;2023-09-07T06:38:05;23.30;57.20
9446;DHT22;4761;49.490;10.908;2023-09-07T06:40:30;23.40;57.00
9446;DHT22;4761;49.490;10.908;2023-09-07T06:42:56;23.40;56.70
9446;DHT22;4761;49.490;10.908;2023-09-07T06:45:23;23.50;56.60
9446;DHT22;4761;49.490;10.908;2023-09-07T06:47:51;23.60;56.50
9446;DHT22;4761;49.490;10.908;2023-09-07T06:50:17;23.70;56.40
9446;DHT22;4761;49.490;10.908;2023-09-07T06:52:42;23.70;56.30
9446;DHT22;4761;49.490;10.908;2023-09-07T06:55:08;23.80;56.20
9446;DHT22;4761;49.490;10.908;2023-09-07T06:57:34;23.80;56.00
9446;DHT22;4761;49.490;10.908;2023-09-07T07:00:00;23.90;56.00
9446;DHT22;4761;49.490;10.908;2023-09-07T07:02:25;24.00;56.00
9446;DHT22;4761;49.490;10.908;2023-09-07T07:04:51;24.00;55.90
9446;DHT22;4761;49.490;10.908;2023-09-07T07:07:17;24.00;55.70
9446;DHT22;4761;49.490;10.908;2023-09-07T07:09:43;24.10;55.70
9446;DHT22;4761;49.490;10.908;2023-09-07T07:12:08;24.10;55.70
9446;DHT22;4761;49.490;10.908;2023-09-07T07:14:34;24.10;55.70
9446;DHT22;4761;49.490;10.908;2023-09-07T07:16:59;24.10;55.60
9446;DHT22;4761;49.490;10.908;2023-09-07T07:19:27;24.20;55.70
9446;DHT22;4761;49.490;10.908;2023-09-07T07:21:52;24.20;55.60
9446;DHT22;4761;49.490;10.908;2023-09-07T07:24:18;24.20;55.60
9446;DHT22;4761;49.490;10.908;2023-09-07T07:26:45;24.30;55.70
9446;DHT22;4761;49.490;10.908;2023-09-07T07:29:11;24.30;55.70
9446;DHT22;4761;49.490;10.908;2023-09-07T07:31:37;24.30;55.70
9446;DHT22;4761;49.490;10.908;2023-09-07T07:34:03;24.30;55.70
9446;DHT22;4761;49.490;10.908;2023-09-07T07:36:28;24.40;55.80
9446;DHT22;4761;49.490;10.908;2023-09-07T07:38:54;24.30;56.30
9446;DHT22;4761;49.490;10.908;2023-09-07T07:41:20;24.40;55.80
9446;DHT22;4761;49.490;10.908;2023-09-07T07:43:45;24.40;55.80
9446;DHT22;4761;49.490;10.908;2023-09-07T07:46:11;24.40;55.80
9446;DHT22;4761;49.490;10.908;2023-09-07T07:48:36;24.40;55.80
9446;DHT22;4761;49.490;10.908;2023-09-07T07:51:03;24.40;55.80
9446;DHT22;4761;49.490;10.908;2023-09-07T07:53:30;24.40;55.80
9446;DHT22;4761;49.490;10.908;2023-09-07T07:55:56;24.40;55.80
9446;DHT22;4761;49.490;10.908;2023-09-07T07:58:22;24.40;55.90
9446;DHT22;4761;49.490;10.908;2023-09-07T08:00:48;24.40;55.90
9446;DHT22;4761;49.490;10.908;2023-09-07T08:03:14;24.50;56.00
9446;DHT22;4761;49.490;10.908;2023-09-07T08:05:40;24.40;55.90
9446;DHT22;4761;49.490;10.908;2023-09-07T08:08:06;24.40;55.90
9446;DHT22;4761;49.490;10.908;2023-09-07T08:10:36;24.40;55.90
9446;DHT22;4761;49.490;10.908;2023-09-07T08:13:03;24.40;55.90
9446;DHT22;4761;49.490;10.908;2023-09-07T08:15:31;24.40;55.90
9446;DHT22;4761;49.490;10.908;2023-09-07T08:17:56;24.40;56.50
9446;DHT22;4761;49.490;10.908;2023-09-07T08:20:22;24.50;56.00
9446;DHT22;4761;49.490;10.908;2023-09-07T08:22:48;24.50;56.00
9446;DHT22;4761;49.490;10.908;2023-09-07T08:25:14;24.40;55.90
9446;DHT22;4761;49.490;10.908;2023-09-07T08:27:43;24.40;56.00
9446;DHT22;4761;49.490;10.908;2023-09-07T08:30:12;24.40;56.00
9446;DHT22;4761;49.490;10.908;2023-09-07T08:32:37;24.40;56.00
9446;DHT22;4761;49.490;10.908;2023-09-07T08:35:04;24.40;56.00
9446;DHT22;4761;49.490;10.908;2023-09-07T08:37:33;24.40;56.00
9446;DHT22;4761;49.490;10.908;2023-09-07T08:39:59;24.40;56.10
9446;DHT22;4761;49.490;10.908;2023-09-07T08:42:25;24.40;56.10
9446;DHT22;4761;49.490;10.908;2023-09-07T08:44:51;24.40;56.10
9446;DHT22;4761;49.490;10.908;2023-09-07T08:47:18;24.40;56.10
9446;DHT22;4761;49.490;10.908;2023-09-07T08:49:46;24.40;56.00
9446;DHT22;4761;49.490;10.908;2023-09-07T08:52:14;24.40;56.00
9446;DHT22;4761;49.490;10.908;2023-09-07T08:54:42;24.40;56.10
9446;DHT22;4761;49.490;10.908;2023-09-07T08:57:08;24.40;56.70
9446;DHT22;4761;49.490;10.908;2023-09-07T08:59:36;24.40;56.00
9446;DHT22;4761;49.490;10.908;2023-09-07T09:02:01;24.40;56.10
9446;DHT22;4761;49.490;10.908;2023-09-07T09:04:29;24.50;56.10
9446;DHT22;4761;49.490;10.908;2023-09-07T09:06:56;24.40;56.00
9446;DHT22;4761;49.490;10.908;2023-09-07T09:09:25;24.40;56.00
9446;DHT22;4761;49.490;10.908;2023-09-07T09:11:51;24.40;56.10
9446;DHT22;4761;49.490;10.908;2023-09-07T09:14:17;24.40;56.80
9446;DHT22;4761;49.490;10.908;2023-09-07T09:16:52;24.30;56.20
9446;DHT22;4761;49.490;10.908;2023-09-07T09:19:18;24.30;56.30
9446;DHT22;4761;49.490;10.908;2023-09-07T09:21:44;24.30;56.30
9446;DHT22;4761;49.490;10.908;2023-09-07T09:24:11;24.40;56.30
9446;DHT22;4761;49.490;10.908;2023-09-07T09:26:37;24.40;56.10
9446;DHT22;4761;49.490;10.908;2023-09-07T09:29:03;24.40;56.10
9446;DHT22;4761;49.490;10.908;2023-09-07T09:31:30;24.40;56.10
9446;DHT22;4761;49.490;10.908;2023-09-07T09:33:56;24.50;56.10
9446;DHT22;4761;49.490;10.908;2023-09-07T09:36:22;24.50;56.00
9446;DHT22;4761;49.490;10.908;2023-09-07T09:38:49;24.50;56.00
9446;DHT22;4761;49.490;10.908;2023-09-07T09:41:17;24.50;56.00
9446;DHT22;4761;49.490;10.908;2023-09-07T09:43:43;24.50;56.00
9446;DHT22;4761;49.490;10.908;2023-09-07T09:46:10;24.50;56.00
9446;DHT22;4761;49.490;10.908;2023-09-07T09:48:37;24.50;56.00
9446;DHT22;4761;49.490;10.908;2023-09-07T09:51:04;24.50;55.90
9446;DHT22;4761;49.490;10.908;2023-09-07T09:53:30;24.50;55.90
9446;DHT22;4761;49.490;10.908;2023-09-07T09:55:56;24.50;55.90
9446;DHT22;4761;49.490;10.908;2023-09-07T09:58:22;24.50;55.90
9446;DHT22;4761;49.490;10.908;2023-09-07T10:00:54;24.50;55.80
9446;DHT22;4761;49.490;10.908;2023-09-07T10:03:33;24.60;55.90
9446;DHT22;4761;49.490;10.908;2023-09-07T10:06:18;24.50;55.80
9446;DHT22;4761;49.490;10.908;2023-09-07T10:09:01;24.60;55.90
9446;DHT22;4761;49.490;10.908;2023-09-07T10:11:29;24.60;55.80
9446;DHT22;4761;49.490;10.908;2023-09-07T10:14:02;24.60;55.90
9446;DHT22;4761;49.490;10.908;2023-09-07T10:16:29;24.60;55.90
9446;DHT22;4761;49.490;10.908;2023-09-07T10:18:55;24.50;55.90
9446;DHT22;4761;49.490;10.908;2023-09-07T10:21:24;24.50;56.10
9446;DHT22;4761;49.490;10.908;2023-09-07T10:23:51;24.50;56.10
9446;DHT22;4761;49.490;10.908;2023-09-07T10:26:18;24.50;56.00
9446;DHT22;4761;49.490;10.908;2023-09-07T10:28:47;24.50;55.90
9446;DHT22;4761;49.490;10.908;2023-09-07T10:33:39;24.50;56.20
9446;DHT22;4761;49.490;10.908;2023-09-07T10:36:06;24.60;56.10
9446;DHT22;4761;49.490;10.908;2023-09-07T10:38:32;24.60;55.80
9446;DHT22;4761;49.490;10.908;2023-09-07T10:40:59;24.60;55.80
9446;DHT22;4761;49.490;10.908;2023-09-07T10:43:30;24.60;55.70
9446;DHT22;4761;49.490;10.908;2023-09-07T10:45:57;24.60;55.80
9446;DHT22;4761;49.490;10.908;2023-09-07T10:48:24;24.60;55.70
9446;DHT22;4761;49.490;10.908;2023-09-07T10:50:50;24.70;55.70
9446;DHT22;4761;49.490;10.908;2023-09-07T10:53:28;24.70;55.70
9446;DHT22;4761;49.490;10.908;2023-09-07T10:55:56;24.70;55.50
9446;DHT22;4761;49.490;10.908;2023-09-07T10:58:36;24.70;55.70
9446;DHT22;4761;49.490;10.908;2023-09-07T11:01:05;24.70;55.50
9446;DHT22;4761;49.490;10.908;2023-09-07T11:03:31;24.70;55.30
9446;DHT22;4761;49.490;10.908;2023-09-07T11:06:09;24.70;55.00
9446;DHT22;4761;49.490;10.908;2023-09-07T11:08:35;24.70;54.90
9446;DHT22;4761;49.490;10.908;2023-09-07T11:11:04;24.70;55.10
9446;DHT22;4761;49.490;10.908;2023-09-07T11:13:30;24.70;55.30
9446;DHT22;4761;49.490;10.908;2023-09-07T11:15:57;24.70;55.40
9446;DHT22;4761;49.490;10.908;2023-09-07T11:18:24;24.70;55.50
9446;DHT22;4761;49.490;10.908;2023-09-07T11:20:50;24.70;55.50
9446;DHT22;4761;49.490;10.908;2023-09-07T11:23:20;24.70;55.60
9446;DHT22;4761;49.490;10.908;2023-09-07T11:25:47;24.60;55.60
9446;DHT22;4761;49.490;10.908;2023-09-07T11:28:14;24.60;55.40
9446;DHT22;4761;49.490;10.908;2023-09-07T11:30:51;24.70;55.40
9446;DHT22;4761;49.490;10.908;2023-09-07T11:33:17;24.70;55.40
9446;DHT22;4761;49.490;10.908;2023-09-07T11:35:42;24.70;55.60
9446;DHT22;4761;49.490;10.908;2023-09-07T11:38:12;24.60;55.40
9446;DHT22;4761;49.490;10.908;2023-09-07T11:40:38;24.60;55.40
9446;DHT22;4761;49.490;10.908;2023-09-07T11:43:03;24.70;55.40
9446;DHT22;4761;49.490;10.908;2023-09-07T11:45:29;24.70;55.50
9446;DHT22;4761;49.490;10.908;2023-09-07T11:47:54;24.70;55.50
9446;DHT22;4761;49.490;10.908;2023-09-07T11:50:23;24.70;55.30
9446;DHT22;4761;49.490;10.908;2023-09-07T11:52:50;24.70;55.20
9446;DHT22;4761;49.490;10.908;2023-09-07T11:55:15;24.70;55.10
9446;DHT22;4761;49.490;10.908;2023-09-07T11:57:41;24.60;55.20
9446;DHT22;4761;49.490;10.908;2023-09-07T12:00:07;24.70;55.20
9446;DHT22;4761;49.490;10.908;2023-09-07T12:02:35;24.70;55.30
9446;DHT22;4761;49.490;10.908;2023-09-07T12:05:00;24.70;55.30
9446;DHT22;4761;49.490;10.908;2023-09-07T12:07:28;24.70;55.20
9446;DHT22;4761;49.490;10.908;2023-09-07T12:09:54;24.70;55.10
9446;DHT22;4761;49.490;10.908;2023-09-07T12:12:22;24.70;55.10
9446;DHT22;4761;49.490;10.908;2023-09-07T12:14:48;24.70;55.00
9446;DHT22;4761;49.490;10.908;2023-09-07T12:17:14;24.70;55.10
9446;DHT22;4761;49.490;10.908;2023-09-07T12:19:39;24.70;54.90
9446;DHT22;4761;49.490;10.908;2023-09-07T12:22:07;24.70;55.10
9446;DHT22;4761;49.490;10.908;2023-09-07T12:24:33;24.70;54.80
9446;DHT22;4761;49.490;10.908;2023-09-07T12:26:59;24.70;54.80
9446;DHT22;4761;49.490;10.908;2023-09-07T12:29:25;24.70;54.90
9446;DHT22;4761;49.490;10.908;2023-09-07T12:31:51;24.70;54.80
9446;DHT22;4761;49.490;10.908;2023-09-07T12:34:16;24.70;54.90
9446;DHT22;4761;49.490;10.908;2023-09-07T12:36:42;24.70;55.00
9446;DHT22;4761;49.490;10.908;2023-09-07T12:39:07;24.60;55.10
9446;DHT22;4761;49.490;10.908;2023-09-07T12:41:33;24.70;54.90
9446;DHT22;4761;49.490;10.908;2023-09-07T12:43:58;24.70;54.80
9446;DHT22;4761;49.490;10.908;2023-09-07T12:46:24;24.70;54.90
9446;DHT22;4761;49.490;10.908;2023-09-07T12:48:50;24.60;54.90
9446;DHT22;4761;49.490;10.908;2023-09-07T12:51:15;24.70;54.90
9446;DHT22;4761;49.490;10.908;2023-09-07T12:53:41;24.70;54.90
9446;DHT22;4761;49.490;10.908;2023-09-07T12:56:07;24.70;55.00
9446;DHT22;4761;49.490;10.908;2023-09-07T12:58:32;24.70;55.20
9446;DHT22;4761;49.490;10.908;2023-09-07T13:00:58;24.60;55.20
9446;DHT22;4761;49.490;10.908;2023-09-07T13:03:23;24.60;55.10
9446;DHT22;4761;49.490;10.908;2023-09-07T13:05:49;24.60;55.10
9446;DHT22;4761;49.490;10.908;2023-09-07T13:08:14;24.70;55.20
9446;DHT22;4761;49.490;10.908;2023-09-07T13:10:40;24.60;55.40
9446;DHT22;4761;49.490;10.908;2023-09-07T13:13:06;24.70;55.50
9446;DHT22;4761;49.490;10.908;2023-09-07T13:15:32;24.70;55.10
9446;DHT22;4761;49.490;10.908;2023-09-07T13:17:57;24.70;54.80
9446;DHT22;4761;49.490;10.908;2023-09-07T13:20:23;24.70;54.70
9446;DHT22;4761;49.490;10.908;2023-09-07T13:22:49;24.70;54.80
9446;DHT22;4761;49.490;10.908;2023-09-07T13:25:14;24.70;55.10
9446;DHT22;4761;49.490;10.908;2023-09-07T13:27:40;24.70;55.20
9446;DHT22;4761;49.490;10.908;2023-09-07T13:30:06;24.70;55.40
9446;DHT22;4761;49.490;10.908;2023-09-07T13:32:33;24.70;55.50
9446;DHT22;4761;49.490;10.908;2023-09-07T13:34:59;24.70;55.30
9446;DHT22;4761;49.490;10.908;2023-09-07T13:37:25;24.60;55.20
9446;DHT22;4761;49.490;10.908;2023-09-07T13:39:50;24.70;55.20
9446;DHT22;4761;49.490;10.908;2023-09-07T13:42:16;24.60;55.40
9446;DHT22;4761;49.490;10.908;2023-09-07T13:44:41;24.60;55.40
9446;DHT22;4761;49.490;10.908;2023-09-07T13:47:07;24.60;55.50
9446;DHT22;4761;49.490;10.908;2023-09-07T13:49:35;24.60;55.60
9446;DHT22;4761;49.490;10.908;2023-09-07T13:52:01;24.60;55.60
9446;DHT22;4761;49.490;10.908;2023-09-07T13:54:26;24.60;55.60
9446;DHT22;4761;49.490;10.908;2023-09-07T13:56:52;24.60;55.60
9446;DHT22;4761;49.490;10.908;2023-09-07T13:59:17;24.60;55.60
9446;DHT22;4761;49.490;10.908;2023-09-07T14:01:43;24.60;55.60
9446;DHT22;4761;49.490;10.908;2023-09-07T14:04:08;24.60;55.60
9446;DHT22;4761;49.490;10.908;2023-09-07T14:06:34;24.70;55.70
9446;DHT22;4761;49.490;10.908;2023-09-07T14:08:59;24.70;55.70
9446;DHT22;4761;49.490;10.908;2023-09-07T14:11:25;24.60;55.70
9446;DHT22;4761;49.490;10.908;2023-09-07T14:13:50;24.60;55.70
9446;DHT22;4761;49.490;10.908;2023-09-07T14:16:20;24.60;55.70
9446;DHT22;4761;49.490;10.908;2023-09-07T14:18:46;24.60;55.40
9446;DHT22;4761;49.490;10.908;2023-09-07T14:21:14;24.70;55.70
9446;DHT22;4761;49.490;10.908;2023-09-07T14:23:39;24.70;55.70
9446;DHT22;4761;49.490;10.908;2023-09-07T14:26:06;24.70;55.70
9446;DHT22;4761;49.490;10.908;2023-09-07T14:28:31;24.70;55.80
9446;DHT22;4761;49.490;10.908;2023-09-07T14:30:57;24.60;55.50
9446;DHT22;4761;49.490;10.908;2023-09-07T14:33:24;24.70;55.80
9446;DHT22;4761;49.490;10.908;2023-09-07T14:35:51;24.60;55.70
9446;DHT22;4761;49.490;10.908;2023-09-07T14:38:20;24.60;55.60
9446;DHT22;4761;49.490;10.908;2023-09-07T14:40:46;24.60;55.50
9446;DHT22;4761;49.490;10.908;2023-09-07T14:43:14;24.70;55.70
9446;DHT22;4761;49.490;10.908;2023-09-07T14:45:39;24.70;55.80
9446;DHT22;4761;49.490;10.908;2023-09-07T14:48:05;24.70;55.90
9446;DHT22;4761;49.490;10.908;2023-09-07T14:50:31;24.70;56.00
9446;DHT22;4761;49.490;10.908;2023-09-07T14:52:56;24.70;55.70
9446;DHT22;4761;49.490;10.908;2023-09-07T14:55:21;24.70;55.70
9446;DHT22;4761;49.490;10.908;2023-09-07T14:57:47;24.70;55.90
9446;DHT22;4761;49.490;10.908;2023-09-07T15:00:13;24.70;56.00
9446;DHT22;4761;49.490;10.908;2023-09-07T15:02:38;24.70;55.70
9446;DHT22;4761;49.490;10.908;2023-09-07T15:05:04;24.70;55.70
9446;DHT22;4761;49.490;10.908;2023-09-07T15:07:30;24.70;56.00
9446;DHT22;4761;49.490;10.908;2023-09-07T15:09:56;24.70;55.70
9446;DHT22;4761;49.490;10.908;2023-09-07T15:12:21;24.70;55.50
9446;DHT22;4761;49.490;10.908;2023-09-07T15:14:47;24.70;55.60
9446;DHT22;4761;49.490;10.908;2023-09-07T15:17:15;24.70;55.50
9446;DHT22;4761;49.490;10.908;2023-09-07T15:19:41;24.70;55.70
9446;DHT22;4761;49.490;10.908;2023-09-07T15:22:07;24.70;55.50
9446;DHT22;4761;49.490;10.908;2023-09-07T15:24:32;24.70;55.60
9446;DHT22;4761;49.490;10.908;2023-09-07T15:26:58;24.70;55.70
9446;DHT22;4761;49.490;10.908;2023-09-07T15:29:24;24.70;55.70
9446;DHT22;4761;49.490;10.908;2023-09-07T15:31:49;24.70;55.70
9446;DHT22;4761;49.490;10.908;2023-09-07T15:34:16;24.70;55.70
9446;DHT22;4761;49.490;10.908;2023-09-07T15:36:41;24.70;55.40
9446;DHT22;4761;49.490;10.908;2023-09-07T15:39:07;24.70;55.60
9446;DHT22;4761;49.490;10.908;2023-09-07T15:41:33;24.70;55.60